Time;durP1;ratioP1;P1;durP2;ratioP2;P2;SDS_P1;SDS_P2;PMS_P1;PMS_P2;Temp;Humidity;BMP_temperature;BMP_pressure;BME280_temperature;BME280_humidity;BME280_pressure;Samples;Min_cycle;Max_cycle;Signal;HPM_P1;HPM_P2
2022/09/06 00:00:45;;;;;;;;;;;18.40;99.90;;;17.45;100.00;95867.69;10488397;28;1995;-67
2022/09/06 00:05:48;;;;;;;;;;;18.40;99.90;;;17.46;100.00;95863.84;10485862;28;1921;-66
2022/09/06 00:10:50;;;;;;;;;;;18.50;99.90;;;17.39;100.00;95860.81;10484659;28;1984;-67
2022/09/06 00:15:53;;;;;;;;;;;18.30;99.90;;;17.48;100.00;95864.34;10490763;28;1975;-71
2022/09/06 00:20:58;;;;;;;;;;;18.30;99.90;;;17.44;100.00;95868.81;10485041;28;1889;-75
2022/09/06 00:26:00;;;;;;;;;;;18.30;99.90;;;17.46;100.00;95875.53;10487474;28;1922;-67
2022/09/06 00:31:03;;;;;;;;;;;18.30;99.90;;;17.47;100.00;95870.88;10485386;28;1856;-66
2022/09/06 00:36:06;;;;;;;;;;;18.30;99.90;;;17.44;100.00;95866.09;10464838;28;1842;-67
2022/09/06 00:41:09;;;;;;;;;;;18.30;99.90;;;17.38;100.00;95864.63;10485457;28;1782;-66
2022/09/06 00:46:12;;;;;;;;;;;18.30;99.90;;;17.20;100.00;95875.44;10487298;28;1980;-68
2022/09/06 00:51:15;;;;;;;;;;;18.30;99.90;;;17.10;100.00;95872.97;10480216;28;1938;-67
2022/09/06 00:56:18;;;;;;;;;;;18.10;99.90;;;17.05;100.00;95875.03;10497535;28;1945;-69
2022/09/06 01:01:21;;;;;;;;;;;17.90;99.90;;;17.03;100.00;95880.78;10493886;28;1862;-68
2022/09/06 01:06:25;;;;;;;;;;;17.90;99.90;;;16.94;100.00;95886.16;10469442;28;2009;-68
2022/09/06 01:11:28;;;;;;;;;;;17.90;99.90;;;16.90;100.00;95885.19;10483919;28;1826;-68
2022/09/06 01:16:31;;;;;;;;;;;17.80;99.90;;;16.97;100.00;95879.31;10468003;28;1841;-67
2022/09/06 01:21:34;;;;;;;;;;;17.90;99.90;;;17.01;100.00;95883.81;10488789;28;1928;-66
2022/09/06 01:26:37;;;;;;;;;;;17.90;99.90;;;17.02;100.00;95887.31;10485861;28;1976;-68
2022/09/06 01:31:40;;;;;;;;;;;17.90;99.90;;;16.91;100.00;95877.84;10472953;28;1910;-67
2022/09/06 01:36:43;;;;;;;;;;;17.90;99.90;;;16.89;100.00;95880.06;10466313;28;1980;-67
2022/09/06 01:42:06;;;;;;;;;;;17.80;99.90;;;16.95;100.00;95889.69;10479526;28;1992;-67
2022/09/06 01:47:09;;;;;;;;;;;17.80;99.90;;;16.97;100.00;95882.81;10494647;28;1976;-67
2022/09/06 01:52:12;;;;;;;;;;;17.80;99.90;;;16.91;100.00;95885.97;10465745;28;1941;-69
2022/09/06 01:57:15;;;;;;;;;;;17.80;99.90;;;16.96;100.00;95885.84;10496149;28;1987;-67
2022/09/06 02:02:18;;;;;;;;;;;17.80;99.90;;;16.97;100.00;95887.44;10478435;28;1983;-68
2022/09/06 02:07:22;;;;;;;;;;;17.80;99.90;;;16.91;100.00;95884.06;10474708;28;1997;-68
2022/09/06 02:12:25;;;;;;;;;;;17.90;99.90;;;16.89;100.00;95880.88;10493618;28;1910;-68
2022/09/06 02:17:28;;;;;;;;;;;17.80;99.90;;;16.91;100.00;95885.97;10476056;28;1734;-67
2022/09/06 02:22:34;;;;;;;;;;;17.70;99.90;;;16.88;100.00;95878.47;10489669;28;1846;-67
2022/09/06 02:27:37;;;;;;;;;;;17.80;99.90;;;16.78;100.00;95870.56;10490715;28;2043;-67
2022/09/06 02:32:40;;;;;;;;;;;17.80;99.90;;;16.81;100.00;95878.91;10490344;28;1917;-66
2022/09/06 02:37:43;;;;;;;;;;;17.60;99.90;;;16.82;100.00;95882.41;10475347;28;1985;-71
2022/09/06 02:42:46;;;;;;;;;;;17.70;99.90;;;16.82;100.00;95863.41;10487217;28;2416;-68
2022/09/06 02:47:49;;;;;;;;;;;17.70;99.90;;;16.81;100.00;95876.19;10494099;28;1976;-68
2022/09/06 02:52:52;;;;;;;;;;;17.60;99.90;;;16.75;100.00;95878.22;10492000;28;1908;-68
2022/09/06 02:57:55;;;;;;;;;;;17.70;99.90;;;16.77;100.00;95887.97;10490650;28;1981;-68
2022/09/06 03:02:58;;;;;;;;;;;17.70;99.90;;;16.79;100.00;95885.75;10474456;28;1845;-67
2022/09/06 03:08:02;;;;;;;;;;;17.60;99.90;;;16.66;100.00;95881.97;10494815;28;1898;-66
2022/09/06 03:13:05;;;;;;;;;;;17.60;99.90;;;16.55;100.00;95873.28;10473609;28;2244;-66
2022/09/06 03:18:08;;;;;;;;;;;;;;;16.49;100.00;95879.94;10490582;28;1988;-66
2022/09/06 03:23:11;;;;;;;;;;;17.30;99.90;;;16.36;100.00;95883.53;10492589;28;1774;-68
2022/09/06 03:28:14;;;;;;;;;;;17.30;99.90;;;16.48;100.00;95867.50;10491317;28;1913;-67
2022/09/06 03:33:20;;;;;;;;;;;17.30;99.90;;;16.56;100.00;95864.03;10489139;28;1913;-67
2022/09/06 03:38:23;;;;;;;;;;;17.50;99.90;;;16.54;100.00;95862.72;10493908;28;1890;-69
2022/09/06 03:43:26;;;;;;;;;;;17.40;99.90;;;16.53;100.00;95858.41;10470158;28;1942;-67
2022/09/06 03:48:29;;;;;;;;;;;16.90;99.90;;;16.61;100.00;95853.06;10488737;28;1967;-68
2022/09/06 03:53:33;;;;;;;;;;;17.50;99.90;;;16.57;100.00;95862.91;10487303;28;1942;-69
2022/09/06 03:58:35;;;;;;;;;;;17.30;99.90;;;16.62;100.00;95865.50;10487985;28;1901;-75
2022/09/06 04:03:39;;;;;;;;;;;17.40;99.90;;;16.63;100.00;95856.25;10482360;28;2052;-67
2022/09/06 04:08:42;;;;;;;;;;;17.50;99.90;;;16.60;100.00;95856.84;10480247;28;1907;-67
2022/09/06 04:13:45;;;;;;;;;;;17.40;99.90;;;16.60;100.00;95869.63;10482712;28;2024;-71
2022/09/06 04:18:48;;;;;;;;;;;17.50;99.90;;;16.59;100.00;95876.16;10483640;28;1877;-68
2022/09/06 04:23:51;;;;;;;;;;;17.40;99.90;;;16.55;100.00;95870.56;10484495;28;2099;-68
2022/09/06 04:28:55;;;;;;;;;;;17.50;99.90;;;16.60;100.00;95867.72;10487105;28;2019;-73
2022/09/06 04:33:58;;;;;;;;;;;17.40;99.90;;;16.60;100.00;95862.28;10481834;28;1894;-67
2022/09/06 04:39:02;;;;;;;;;;;17.40;99.90;;;16.52;100.00;95854.09;10484786;28;1894;-67
2022/09/06 04:44:05;;;;;;;;;;;17.50;99.90;;;16.58;100.00;95859.09;10464030;28;1906;-66
2022/09/06 04:49:08;;;;;;;;;;;17.40;99.90;;;16.74;100.00;95868.50;10464246;28;1953;-68
2022/09/06 04:54:11;;;;;;;;;;;17.60;99.90;;;16.72;100.00;95876.13;10483519;28;1918;-67
2022/09/06 04:59:15;;;;;;;;;;;17.50;99.90;;;16.71;100.00;95887.28;10490126;28;1913;-69
2022/09/06 05:04:18;;;;;;;;;;;17.60;99.90;;;16.82;100.00;95868.84;10457372;28;1910;-66
2022/09/06 05:09:21;;;;;;;;;;;17.60;99.90;;;16.92;100.00;95880.25;10483489;28;1914;-67
2022/09/06 05:14:24;;;;;;;;;;;17.70;99.90;;;17.10;100.00;95878.41;10480032;28;1922;-68
2022/09/06 05:19:28;;;;;;;;;;;17.80;99.90;;;17.25;100.00;95888.09;10463843;28;1991;-69
2022/09/06 05:24:31;;;;;;;;;;;17.90;99.90;;;17.24;100.00;95906.31;10483297;28;1914;-67
2022/09/06 05:29:34;;;;;;;;;;;18.00;99.90;;;17.67;100.00;95902.91;10484237;28;1906;-69
2022/09/06 05:34:37;;;;;;;;;;;18.10;99.90;;;18.15;100.00;95915.72;10467223;28;1922;-69
2022/09/06 05:39:40;;;;;;;;;;;18.50;99.90;;;18.25;100.00;95920.81;10483197;28;2024;-68
2022/09/06 05:44:43;;;;;;;;;;;18.70;99.90;;;18.57;100.00;95927.72;10486390;28;1973;-71
2022/09/06 05:49:46;;;;;;;;;;;19.00;99.90;;;18.70;100.00;95934.16;10486486;28;1881;-68
2022/09/06 05:54:50;;;;;;;;;;;19.40;99.90;;;18.89;100.00;95934.63;10481775;28;2037;-69
2022/09/06 05:59:53;;;;;;;;;;;19.30;99.90;;;18.78;100.00;95959.78;10481327;28;2002;-69
2022/09/06 06:04:57;;;;;;;;;;;19.40;99.90;;;18.77;100.00;95961.72;10483484;28;1949;-69
2022/09/06 06:10:00;;;;;;;;;;;19.50;99.90;;;18.52;100.00;95970.66;10480655;28;1973;-68
2022/09/06 06:15:04;;;;;;;;;;;19.30;99.90;;;18.30;100.00;95977.81;10477163;28;1969;-69
2022/09/06 06:20:07;;;;;;;;;;;19.10;99.90;;;18.28;100.00;95979.25;10481247;28;2071;-69
2022/09/06 06:25:10;;;;;;;;;;;19.00;99.90;;;18.88;100.00;95968.41;10483102;28;1973;-69
2022/09/06 06:30:14;;;;;;;;;;;19.20;99.90;;;19.03;100.00;95980.75;10487013;28;1990;-69
2022/09/06 06:35:20;;;;;;;;;;;19.50;99.90;;;19.28;100.00;95983.78;10482300;28;1898;-69
2022/09/06 06:40:22;;;;;;;;;;;19.80;99.90;;;19.10;100.00;95981.06;10484720;28;1913;-69
2022/09/06 06:45:25;;;;;;;;;;;19.80;99.90;;;18.89;100.00;95980.94;10488522;28;1910;-70
2022/09/06 06:50:29;;;;;;;;;;;;;;;18.86;100.00;95984.28;10470454;28;1961;-70
2022/09/06 06:55:32;;;;;;;;;;;;;;;19.14;99.75;96001.09;10473084;28;1774;-70
2022/09/06 07:00:35;;;;;;;;;;;19.60;99.90;;;19.50;98.47;96013.53;10491585;28;1853;-70
2022/09/06 07:05:38;;;;;;;;;;;19.90;99.90;;;20.69;91.37;95992.63;10484090;28;1913;-69
2022/09/06 07:11:01;;;;;;;;;;;20.50;99.90;;;21.64;83.66;95991.78;10479972;28;1832;-68
2022/09/06 07:16:04;;;;;;;;;;;21.50;99.90;;;21.56;82.97;95998.13;10481551;28;2131;-70
2022/09/06 07:21:07;;;;;;;;;;;21.90;99.90;;;21.38;83.81;95994.00;10487162;28;1925;-75
2022/09/06 07:26:30;;;;;;;;;;;21.90;99.90;;;20.92;86.05;96004.00;10486974;28;1975;-72
2022/09/06 07:31:33;;;;;;;;;;;21.70;99.90;;;20.77;87.72;95997.22;10485118;28;1902;-69
2022/09/06 07:36:56;;;;;;;;;;;21.60;99.90;;;20.95;86.83;96001.41;10492568;28;1978;-68
2022/09/06 07:41:59;;;;;;;;;;;21.50;99.90;;;20.79;88.94;96003.16;10487442;28;1919;-68
2022/09/06 07:47:05;;;;;;;;;;;21.50;99.90;;;20.67;91.96;95981.22;10480028;28;1920;-68
2022/09/06 07:52:28;;;;;;;;;;;21.50;99.90;;;20.41;97.54;95984.91;10485045;28;1976;-67
2022/09/06 07:57:50;;;;;;;;;;;21.20;99.90;;;20.34;98.79;95987.34;10483661;28;1937;-68
2022/09/06 08:02:53;;;;;;;;;;;21.10;99.90;;;20.33;96.55;95972.13;10485376;28;1922;-70
2022/09/06 08:07:56;;;;;;;;;;;21.10;99.90;;;20.36;95.93;95976.09;10488027;28;1979;-72
2022/09/06 08:13:19;;;;;;;;;;;21.10;99.90;;;20.66;94.27;95963.25;10485818;28;1806;-68
2022/09/06 08:18:21;;;;;;;;;;;21.10;99.90;;;21.15;91.14;95960.72;10484583;28;1901;-68
2022/09/06 08:23:24;;;;;;;;;;;21.50;99.90;;;21.75;86.74;95951.06;10486610;28;2032;-69
2022/09/06 08:28:27;;;;;;;;;;;22.00;99.90;;;22.24;83.45;95949.16;10489583;28;1918;-68
2022/09/06 08:33:30;;;;;;;;;;;22.50;99.90;;;22.84;79.87;95952.09;10489802;28;1920;-68
2022/09/06 08:38:33;;;;;;;;;;;23.00;99.90;;;22.79;80.09;95950.44;10486002;28;1886;-68
2022/09/06 08:43:36;;;;;;;;;;;23.20;99.90;;;23.19;76.42;95942.16;10482137;28;1925;-69
2022/09/06 08:48:38;;;;;;;;;;;23.50;99.90;;;23.63;75.38;95939.44;10481705;28;1914;-69
2022/09/06 08:53:41;;;;;;;;;;;23.80;99.90;;;23.74;74.44;95928.72;10480612;28;1928;-69
2022/09/06 08:58:44;;;;;;;;;;;24.00;99.90;;;23.61;70.50;95941.75;10485661;28;1913;-69
2022/09/06 09:03:47;;;;;;;;;;;24.10;99.90;;;23.27;71.92;95936.88;10461892;28;1865;-69
2022/09/06 09:08:50;;;;;;;;;;;24.00;99.90;;;23.32;69.93;95917.44;10481632;28;2022;-69
2022/09/06 09:13:53;;;;;;;;;;;23.90;99.90;;;23.06;70.39;95909.69;10483217;28;2435;-70
2022/09/06 09:18:57;;;;;;;;;;;23.70;99.90;;;23.04;69.34;95899.06;10483454;28;1870;-69
2022/09/06 09:24:00;;;;;;;;;;;23.70;99.90;;;23.30;69.45;95889.56;10486368;28;1904;-68
2022/09/06 09:29:03;;;;;;;;;;;23.90;99.90;;;23.14;70.82;95895.00;10467562;28;1981;-68
2022/09/06 09:34:06;;;;;;;;;;;23.90;99.90;;;23.54;70.68;95878.44;10481770;28;2026;-68
2022/09/06 09:39:09;;;;;;;;;;;23.90;99.90;;;23.76;68.78;95878.97;10481394;28;1920;-69
2022/09/06 09:44:12;;;;;;;;;;;24.20;99.90;;;23.94;67.85;95870.00;10480811;28;2281;-68
2022/09/06 09:49:14;;;;;;;;;;;24.50;99.90;;;24.10;67.63;95861.72;10480351;28;2012;-68
2022/09/06 09:54:17;;;;;;;;;;;24.60;99.90;;;24.59;65.13;95874.97;10479155;28;2000;-68
2022/09/06 09:59:20;;;;;;;;;;;24.80;99.90;;;24.63;60.81;95862.09;10482119;28;1913;-69
2022/09/06 10:04:23;;;;;;;;;;;25.00;99.90;;;24.86;59.25;95856.66;10479557;28;1996;-67
2022/09/06 10:09:41;;;;;;;;;;;25.20;99.90;;;24.75;58.77;95852.91;10483516;28;1999;-68
2022/09/06 10:14:44;;;;;;;;;;;25.30;99.90;;;24.86;58.38;95844.84;10486462;28;1992;-68
2022/09/06 10:19:47;;;;;;;;;;;25.40;99.90;;;24.85;58.54;95848.78;10491835;28;1903;-68
2022/09/06 10:24:50;;;;;;;;;;;25.60;99.90;;;25.02;58.05;95842.81;10487378;28;2007;-69
2022/09/06 10:29:54;;;;;;;;;;;25.50;99.90;;;24.95;56.64;95837.97;10492456;28;1984;-67
2022/09/06 10:34:57;;;;;;;;;;;25.50;99.90;;;25.07;56.34;95842.56;10492664;28;1898;-67
2022/09/06 10:40:00;;;;;;;;;;;25.70;99.90;;;25.38;55.50;95843.47;10490571;28;1947;-68
2022/09/06 10:45:03;;;;;;;;;;;25.80;99.90;;;25.39;55.90;95839.56;10493820;28;1914;-68
2022/09/06 10:50:06;;;;;;;;;;;25.90;99.90;;;25.39;55.28;95829.38;10486006;28;1989;-68
2022/09/06 10:55:09;;;;;;;;;;;26.00;99.90;;;25.55;55.40;95837.47;10486745;28;1966;-74
2022/09/06 11:00:13;;;;;;;;;;;26.20;99.90;;;25.56;55.88;95828.03;10484940;28;1890;-75
2022/09/06 11:05:16;;;;;;;;;;;26.10;99.90;;;25.74;55.30;95820.09;10483808;28;1934;-67
2022/09/06 11:10:42;;;;;;;;;;;26.20;99.90;;;25.87;55.84;95822.28;10487664;28;1961;-68
2022/09/06 11:15:44;;;;;;;;;;;26.10;99.90;;;25.71;54.92;95818.88;10466112;28;1945;-69
2022/09/06 11:20:47;;;;;;;;;;;26.30;99.90;;;25.67;54.97;95818.00;10491797;28;1866;-69
2022/09/06 11:25:50;;;;;;;;;;;26.40;99.90;;;25.91;51.49;95810.53;10492062;28;1913;-68
2022/09/06 11:30:53;;;;;;;;;;;26.30;99.90;;;25.95;52.21;95809.38;10492573;28;1940;-68
2022/09/06 11:35:55;;;;;;;;;;;26.50;99.90;;;26.19;53.54;95810.91;10486986;28;1881;-73
2022/09/06 11:40:59;;;;;;;;;;;26.60;99.90;;;26.26;51.26;95810.22;10493331;28;1838;-71
2022/09/06 11:46:01;;;;;;;;;;;26.80;99.90;;;26.53;53.50;95808.19;10488052;28;1969;-71
2022/09/06 11:51:05;;;;;;;;;;;26.90;99.90;;;26.92;51.16;95798.41;10489699;28;1980;-68
2022/09/06 11:56:08;;;;;;;;;;;27.40;99.90;;;27.28;50.38;95787.72;10486244;28;1932;-68
2022/09/06 12:01:11;;;;;;;;;;;27.70;99.90;;;27.18;49.66;95777.41;10488016;28;1987;-69
2022/09/06 12:06:13;;;;;;;;;;;27.70;99.90;;;27.13;48.65;95775.00;10488244;28;2038;-69
2022/09/06 12:11:16;;;;;;;;;;;27.90;99.90;;;27.42;48.74;95776.84;10472836;28;1914;-68
2022/09/06 12:16:19;;;;;;;;;;;28.00;99.90;;;27.58;49.08;95756.44;10482403;28;2127;-69
2022/09/06 12:21:22;;;;;;;;;;;28.00;99.90;;;27.96;48.34;95755.13;10487546;28;2031;-67
2022/09/06 12:26:25;;;;;;;;;;;28.20;99.90;;;28.19;48.75;95763.13;10488480;28;1918;-67
2022/09/06 12:31:27;;;;;;;;;;;28.70;99.90;;;28.01;48.31;95760.28;10483965;28;1940;-67
2022/09/06 12:36:30;;;;;;;;;;;28.60;99.90;;;28.19;48.38;95766.69;10486616;28;1937;-68
2022/09/06 12:41:33;;;;;;;;;;;28.60;99.90;;;28.43;48.15;95754.16;10489148;28;2241;-68
2022/09/06 12:46:37;;;;;;;;;;;28.70;99.90;;;28.48;45.98;95751.03;10482211;28;1965;-67
2022/09/06 12:51:40;;;;;;;;;;;29.00;99.90;;;28.73;46.95;95737.28;10487767;28;1878;-68
2022/09/06 12:56:43;;;;;;;;;;;29.20;99.90;;;28.65;46.62;95740.41;10487046;28;1929;-68
2022/09/06 13:01:45;;;;;;;;;;;29.20;99.90;;;28.67;47.02;95727.78;10488061;28;1932;-69
2022/09/06 13:06:48;;;;;;;;;;;29.10;99.90;;;29.05;46.68;95726.28;10484109;28;1941;-68
2022/09/06 13:11:52;;;;;;;;;;;;;;;28.84;47.22;95736.50;10488087;28;1997;-69
2022/09/06 13:16:56;;;;;;;;;;;29.10;99.90;;;29.45;47.43;95729.81;10484574;28;2167;-68
2022/09/06 13:21:59;;;;;;;;;;;;;;;27.89;49.61;95722.72;10485780;28;1905;-68
2022/09/06 13:27:02;;;;;;;;;;;29.10;99.90;;;28.12;49.46;95716.09;10490782;28;1981;-68
2022/09/06 13:32:08;;;;;;;;;;;28.70;99.90;;;27.92;50.21;95710.09;10485171;28;1988;-68
2022/09/06 13:37:11;;;;;;;;;;;28.60;99.90;;;27.29;53.01;95723.09;10487067;28;2074;-67
2022/09/06 13:42:14;;;;;;;;;;;28.10;99.90;;;26.90;55.91;95718.00;10484395;28;1766;-68
2022/09/06 13:47:16;;;;;;;;;;;27.70;99.90;;;27.15;54.60;95706.41;10483224;28;1957;-67
2022/09/06 13:52:20;;;;;;;;;;;27.50;99.90;;;27.33;53.52;95699.06;10492227;28;1825;-68
2022/09/06 13:57:23;;;;;;;;;;;27.60;99.90;;;27.63;53.56;95698.09;10495371;28;1825;-68
2022/09/06 14:02:26;;;;;;;;;;;27.90;99.90;;;27.97;51.34;95691.19;10495361;28;1504;-68
2022/09/06 14:07:29;;;;;;;;;;;28.20;99.90;;;28.58;48.81;95696.16;10488953;28;1938;-70
2022/09/06 14:12:33;;;;;;;;;;;28.50;99.90;;;28.65;48.46;95685.09;10493659;28;1858;-70
2022/09/06 14:17:36;;;;;;;;;;;29.00;99.90;;;27.96;49.32;95689.59;10489885;28;2045;-69
2022/09/06 14:22:39;;;;;;;;;;;28.80;99.90;;;28.29;48.51;95665.63;10488721;28;1961;-70
2022/09/06 14:27:42;;;;;;;;;;;28.60;99.90;;;28.02;49.45;95659.63;10488726;28;1949;-74
2022/09/06 14:32:45;;;;;;;;;;;28.50;99.90;;;27.46;51.63;95663.66;10493106;28;1893;-73
2022/09/06 14:37:49;;;;;;;;;;;28.30;99.90;;;27.14;53.26;95674.50;10487022;28;1866;-70
2022/09/06 14:42:52;;;;;;;;;;;27.90;99.90;;;27.17;52.76;95669.00;10489286;28;1910;-69
2022/09/06 14:48:04;;;;;;;;;;;27.70;99.90;;;27.03;54.55;95665.31;10492392;28;1910;-69
2022/09/06 14:53:07;;;;;;;;;;;27.70;99.90;;;26.77;56.00;95664.31;10489158;28;1969;-69
2022/09/06 14:58:30;;;;;;;;;;;27.60;99.90;;;26.51;57.09;95664.47;10483324;28;2193;-69
2022/09/06 15:03:32;;;;;;;;;;;27.40;99.90;;;26.52;58.02;95658.56;10484364;28;1860;-69
2022/09/06 15:08:36;;;;;;;;;;;27.20;99.90;;;26.59;57.51;95652.31;10485712;28;1988;-68
2022/09/06 15:13:40;;;;;;;;;;;27.20;99.90;;;26.77;55.88;95647.75;10478489;28;1968;-74
2022/09/06 15:18:48;;;;;;;;;;;27.30;99.90;;;26.78;56.65;95648.56;10482844;28;1909;-74
2022/09/06 15:23:51;;;;;;;;;;;27.20;99.90;;;26.68;55.69;95656.38;10481268;28;1906;-71
2022/09/06 15:28:53;;;;;;;;;;;27.20;99.90;;;26.76;56.03;95657.22;10486232;28;1979;-70
2022/09/06 15:33:57;;;;;;;;;;;27.40;99.90;;;26.93;55.89;95648.31;10483928;28;1929;-69
2022/09/06 15:38:59;;;;;;;;;;;27.40;99.90;;;26.67;56.82;95637.44;10471383;28;1912;-70
2022/09/06 15:44:02;;;;;;;;;;;27.30;99.90;;;26.67;57.09;95637.44;10484532;28;1890;-68
2022/09/06 15:49:05;;;;;;;;;;;27.30;99.90;;;26.57;56.52;95627.91;10489158;28;1902;-70
2022/09/06 15:54:08;;;;;;;;;;;27.20;99.90;;;26.27;56.58;95625.22;10443617;28;1215859;-70
2022/09/06 15:59:11;;;;;;;;;;;27.00;99.90;;;26.09;55.94;95619.53;10482286;28;1894;-70
2022/09/06 16:04:14;;;;;;;;;;;26.80;99.90;;;26.04;56.51;95616.34;10496873;28;1914;-69
2022/09/06 16:09:17;;;;;;;;;;;26.60;99.90;;;26.04;55.96;95621.84;10481105;28;1907;-68
2022/09/06 16:14:20;;;;;;;;;;;26.70;99.90;;;26.40;54.83;95621.06;10482109;28;1890;-70
2022/09/06 16:19:24;;;;;;;;;;;26.90;99.90;;;26.32;55.29;95626.84;10485701;28;1906;-69
2022/09/06 16:24:27;;;;;;;;;;;27.00;99.90;;;25.84;56.24;95630.28;10481350;28;1933;-70
2022/09/06 16:29:30;;;;;;;;;;;26.60;99.90;;;25.60;56.53;95630.72;10488943;28;1917;-69
2022/09/06 16:34:38;;;;;;;;;;;;;;;25.16;56.84;95628.56;10482770;28;2036;-71
2022/09/06 16:39:41;;;;;;;;;;;26.00;99.90;;;24.89;56.69;95632.44;10486836;28;1885;-70
2022/09/06 16:44:45;;;;;;;;;;;25.70;99.90;;;24.72;58.03;95631.78;10466902;28;1952;-69
2022/09/06 16:49:48;;;;;;;;;;;25.50;99.90;;;24.59;59.94;95627.63;10482433;28;1980;-70
2022/09/06 16:54:51;;;;;;;;;;;25.40;99.90;;;24.57;61.54;95629.19;10482031;28;1943;-72
2022/09/06 16:59:54;;;;;;;;;;;25.40;99.90;;;24.47;64.04;95625.06;10481182;28;1933;-70
2022/09/06 17:04:57;;;;;;;;;;;25.40;99.90;;;24.26;67.06;95622.72;10480892;28;1969;-69
2022/09/06 17:09:59;;;;;;;;;;;25.20;99.90;;;24.24;68.20;95628.59;10483055;28;2423;-69
2022/09/06 17:15:02;;;;;;;;;;;25.10;99.90;;;24.18;69.61;95624.56;10484488;28;2081;-71
2022/09/06 17:20:05;;;;;;;;;;;25.00;99.90;;;24.17;70.45;95616.66;10485189;28;1881;-69
2022/09/06 17:25:09;;;;;;;;;;;24.90;99.90;;;24.10;71.30;95611.81;10464903;28;2117;-70
2022/09/06 17:30:12;;;;;;;;;;;24.90;99.90;;;23.89;73.16;95603.19;10485483;28;2047;-69
2022/09/06 17:35:15;;;;;;;;;;;24.80;99.90;;;23.72;75.17;95601.69;10485409;28;2027;-68
2022/09/06 17:40:18;;;;;;;;;;;24.60;99.90;;;23.52;76.44;95603.63;10487238;28;2038;-67
2022/09/06 17:45:22;;;;;;;;;;;24.50;99.90;;;23.30;78.91;95612.56;10479716;28;2163;-69
2022/09/06 17:50:25;;;;;;;;;;;24.30;99.90;;;23.12;80.49;95623.94;10480801;28;2020;-70
2022/09/06 17:55:29;;;;;;;;;;;24.10;99.90;;;22.95;82.97;95629.78;10482128;28;1957;-68
2022/09/06 18:00:32;;;;;;;;;;;24.10;99.90;;;22.72;85.44;95653.50;10481613;28;2067;-71
2022/09/06 18:05:34;;;;;;;;;;;23.80;99.90;;;22.42;88.63;95656.66;10482488;28;2077;-74
2022/09/06 18:10:38;;;;;;;;;;;23.60;99.90;;;22.34;90.21;95665.84;10482932;28;2001;-69
2022/09/06 18:15:41;;;;;;;;;;;23.40;99.90;;;22.35;91.63;95679.19;10480759;28;2080;-69
2022/09/06 18:20:44;;;;;;;;;;;23.20;99.90;;;22.36;92.36;95691.72;10486158;28;1875;-69
2022/09/06 18:25:47;;;;;;;;;;;23.20;99.90;;;22.35;93.44;95686.59;10480304;28;2009;-69
2022/09/06 18:30:51;;;;;;;;;;;23.30;99.90;;;22.24;94.05;95688.25;10483845;28;2002;-69
2022/09/06 18:36:05;;;;;;;;;;;23.10;99.90;;;22.12;95.55;95686.38;10486410;28;1881;-68
2022/09/06 18:41:08;;;;;;;;;;;23.10;99.90;;;21.99;97.45;95691.06;10491819;28;2071;-68
2022/09/06 18:46:12;;;;;;;;;;;23.00;99.90;;;21.67;99.67;95683.91;10488023;28;2172;-69
2022/09/06 18:51:17;;;;;;;;;;;22.80;99.90;;;21.53;100.00;95671.41;10486695;28;2055;-69
2022/09/06 18:56:20;;;;;;;;;;;22.60;99.90;;;21.53;100.00;95665.94;10490411;28;2060;-68
2022/09/06 19:01:23;;;;;;;;;;;22.50;99.90;;;21.55;100.00;95671.84;10482256;28;2011;-73
2022/09/06 19:06:27;;;;;;;;;;;22.40;99.90;;;21.48;100.00;95676.31;10487533;28;2028;-71
2022/09/06 19:11:32;;;;;;;;;;;22.40;99.90;;;21.59;100.00;95675.50;10493348;28;2072;-73
2022/09/06 19:16:35;;;;;;;;;;;22.40;99.90;;;21.76;100.00;95668.94;10489520;28;2015;-70
2022/09/06 19:21:38;;;;;;;;;;;22.50;99.90;;;21.52;100.00;95660.81;10491108;28;1992;-68
2022/09/06 19:26:44;;;;;;;;;;;22.50;99.90;;;21.37;100.00;95673.25;10472158;28;2044;-71
2022/09/06 19:31:47;;;;;;;;;;;22.30;99.90;;;21.33;100.00;95664.16;10469818;28;2024;-70
2022/09/06 19:36:53;;;;;;;;;;;22.30;99.90;;;21.53;100.00;95655.00;10487093;28;2098;-70
2022/09/06 19:41:57;;;;;;;;;;;22.30;99.90;;;21.41;100.00;95662.44;10485006;28;1844;-70
2022/09/06 19:47:00;;;;;;;;;;;22.30;99.90;;;21.33;100.00;95655.16;10485690;28;2026;-71
2022/09/06 19:52:08;;;;;;;;;;;22.20;99.90;;;21.23;100.00;95649.00;10505436;28;2076;-70
2022/09/06 19:57:11;;;;;;;;;;;22.20;99.90;;;21.21;100.00;95661.41;10484639;28;2059;-71
2022/09/06 20:02:14;;;;;;;;;;;22.10;99.90;;;20.90;100.00;95649.16;10487775;28;2026;-70
2022/09/06 20:07:17;;;;;;;;;;;21.90;99.90;;;20.57;100.00;95646.53;10487079;28;1920;-70
2022/09/06 20:12:20;;;;;;;;;;;21.70;99.90;;;20.48;100.00;95632.97;10485188;28;1929;-71
2022/09/06 20:17:23;;;;;;;;;;;21.50;99.90;;;20.31;100.00;95626.91;10486000;28;2059;-69
2022/09/06 20:22:36;;;;;;;;;;;21.30;99.90;;;20.15;100.00;95624.81;10464473;28;2060;-69
2022/09/06 20:27:39;;;;;;;;;;;21.20;99.90;;;20.12;100.00;95628.25;10485905;28;1903;-69
2022/09/06 20:32:46;;;;;;;;;;;21.10;99.90;;;20.12;100.00;95624.72;10487569;28;2136;-68
2022/09/06 20:37:49;;;;;;;;;;;21.10;99.90;;;20.16;100.00;95631.06;10467751;28;2191;-68
2022/09/06 20:42:52;;;;;;;;;;;21.00;99.90;;;20.35;100.00;95612.22;10483592;28;2050;-67
2022/09/06 20:47:56;;;;;;;;;;;21.10;99.90;;;20.19;100.00;95614.03;10484408;28;2111;-67
2022/09/06 20:52:59;;;;;;;;;;;21.00;99.90;;;20.06;100.00;95620.63;10484428;28;2141;-67
2022/09/06 20:58:02;;;;;;;;;;;21.00;99.90;;;19.82;100.00;95613.16;10478596;28;2350;-68
2022/09/06 21:03:06;;;;;;;;;;;20.80;99.90;;;19.76;100.00;95614.50;10484019;28;2004;-66
2022/09/06 21:08:09;;;;;;;;;;;20.70;99.90;;;19.70;100.00;95603.78;10487049;28;2098;-67
2022/09/06 21:13:12;;;;;;;;;;;20.80;99.90;;;19.69;100.00;95595.94;10484355;28;2043;-67
2022/09/06 21:18:15;;;;;;;;;;;20.60;99.90;;;19.60;100.00;95587.88;10483653;28;2064;-67
2022/09/06 21:23:18;;;;;;;;;;;20.50;99.90;;;19.50;100.00;95587.44;10484891;28;2034;-67
2022/09/06 21:28:21;;;;;;;;;;;20.40;99.90;;;19.25;100.00;95587.34;10485846;28;2053;-67
2022/09/06 21:33:24;;;;;;;;;;;20.20;99.90;;;19.16;100.00;95589.34;10484978;28;2082;-66
2022/09/06 21:38:28;;;;;;;;;;;20.10;99.90;;;19.15;100.00;95598.66;10485172;28;2075;-72
2022/09/06 21:43:31;;;;;;;;;;;20.00;99.90;;;19.07;100.00;95596.78;10483832;28;1874;-73
2022/09/06 21:48:34;;;;;;;;;;;20.00;99.90;;;19.04;100.00;95608.34;10486747;28;2117;-66
2022/09/06 21:53:37;;;;;;;;;;;20.00;99.90;;;18.97;100.00;95606.16;10477407;28;2213;-65
2022/09/06 21:58:40;;;;;;;;;;;19.90;99.90;;;18.94;100.00;95616.88;10468730;28;1966;-65
2022/09/06 22:03:43;;;;;;;;;;;19.90;99.90;;;18.81;100.00;95616.00;10478688;28;2114;-66
2022/09/06 22:08:46;;;;;;;;;;;19.80;99.90;;;18.77;100.00;95609.66;10486179;28;1987;-66
2022/09/06 22:13:49;;;;;;;;;;;19.70;99.90;;;18.67;100.00;95615.47;10488254;28;2087;-67
2022/09/06 22:18:52;;;;;;;;;;;19.70;99.90;;;18.72;100.00;95604.38;10492287;28;2000;-67
2022/09/06 22:23:54;;;;;;;;;;;19.60;99.90;;;18.69;100.00;95597.66;10489222;28;1949;-67
2022/09/06 22:28:57;;;;;;;;;;;19.60;99.90;;;18.56;100.00;95599.47;10489224;28;2056;-66
2022/09/06 22:34:00;;;;;;;;;;;19.60;99.90;;;18.63;100.00;95598.94;10488301;28;2384;-66
2022/09/06 22:39:03;;;;;;;;;;;19.50;99.90;;;18.63;100.00;95585.31;10489484;28;2087;-67
2022/09/06 22:44:06;;;;;;;;;;;19.50;99.90;;;18.69;100.00;95597.66;10482915;28;1984;-66
2022/09/06 22:49:09;;;;;;;;;;;19.50;99.90;;;18.66;100.00;95598.28;10491831;28;2020;-67
2022/09/06 22:54:13;;;;;;;;;;;19.50;99.90;;;18.52;100.00;95598.53;10482583;28;2547;-67
2022/09/06 22:59:18;;;;;;;;;;;19.40;99.90;;;18.60;100.00;95594.97;10486855;28;2043;-68
2022/09/06 23:04:21;;;;;;;;;;;19.40;99.90;;;18.66;100.00;95590.13;10486812;28;2123;-67
2022/09/06 23:09:24;;;;;;;;;;;19.40;99.90;;;18.56;100.00;95587.78;10490801;28;2043;-66